sensor_id;sensor_type;location;lat;lon;timestamp;P1;durP1;ratioP1;P2;durP2;ratioP2
9117;SDS011;4594;50.994;7.126;2022-10-22T00:00:55;3.47;;;2.57;;
9117;SDS011;4594;50.994;7.126;2022-10-22T00:03:21;10.07;;;2.60;;
9117;SDS011;4594;50.994;7.126;2022-10-22T00:05:47;2.60;;;2.50;;
9117;SDS011;4594;50.994;7.126;2022-10-22T00:08:13;4.30;;;2.53;;
9117;SDS011;4594;50.994;7.126;2022-10-22T00:10:39;3.20;;;2.90;;
9117;SDS011;4594;50.994;7.126;2022-10-22T00:13:05;2.90;;;2.23;;
9117;SDS011;4594;50.994;7.126;2022-10-22T00:15:31;2.60;;;2.40;;
9117;SDS011;4594;50.994;7.126;2022-10-22T00:17:57;7.20;;;2.70;;
9117;SDS011;4594;50.994;7.126;2022-10-22T00:20:23;4.17;;;2.57;;
9117;SDS011;4594;50.994;7.126;2022-10-22T00:22:48;2.50;;;2.37;;
9117;SDS011;4594;50.994;7.126;2022-10-22T00:25:14;2.83;;;2.63;;
9117;SDS011;4594;50.994;7.126;2022-10-22T00:27:40;6.50;;;2.90;;
9117;SDS011;4594;50.994;7.126;2022-10-22T00:30:06;5.00;;;2.80;;
9117;SDS011;4594;50.994;7.126;2022-10-22T00:32:33;2.97;;;2.40;;
9117;SDS011;4594;50.994;7.126;2022-10-22T00:34:58;2.67;;;2.47;;
9117;SDS011;4594;50.994;7.126;2022-10-22T00:37:24;4.87;;;2.87;;
9117;SDS011;4594;50.994;7.126;2022-10-22T00:39:50;3.93;;;2.67;;
9117;SDS011;4594;50.994;7.126;2022-10-22T00:42:19;2.70;;;2.50;;
9117;SDS011;4594;50.994;7.126;2022-10-22T00:50:30;7.23;;;2.67;;
9117;SDS011;4594;50.994;7.126;2022-10-22T00:53:12;7.43;;;3.33;;
9117;SDS011;4594;50.994;7.126;2022-10-22T00:55:45;3.30;;;2.40;;
9117;SDS011;4594;50.994;7.126;2022-10-22T00:58:15;2.67;;;2.47;;
9117;SDS011;4594;50.994;7.126;2022-10-22T01:00:45;7.23;;;3.07;;
9117;SDS011;4594;50.994;7.126;2022-10-22T01:03:12;4.63;;;2.63;;
9117;SDS011;4594;50.994;7.126;2022-10-22T01:05:59;2.80;;;2.60;;
9117;SDS011;4594;50.994;7.126;2022-10-22T01:08:31;3.30;;;3.10;;
9117;SDS011;4594;50.994;7.126;2022-10-22T01:11:34;4.23;;;2.97;;
9117;SDS011;4594;50.994;7.126;2022-10-22T01:17:26;2.80;;;2.60;;
9117;SDS011;4594;50.994;7.126;2022-10-22T01:20:09;3.00;;;2.40;;
9117;SDS011;4594;50.994;7.126;2022-10-22T01:25:37;2.37;;;2.17;;
9117;SDS011;4594;50.994;7.126;2022-10-22T01:31:01;2.83;;;2.60;;
9117;SDS011;4594;50.994;7.126;2022-10-22T01:33:29;3.33;;;3.00;;
9117;SDS011;4594;50.994;7.126;2022-10-22T01:35:57;4.70;;;3.00;;
9117;SDS011;4594;50.994;7.126;2022-10-22T01:38:24;4.40;;;2.50;;
9117;SDS011;4594;50.994;7.126;2022-10-22T01:40:51;4.97;;;3.10;;
9117;SDS011;4594;50.994;7.126;2022-10-22T01:43:18;3.00;;;2.63;;
9117;SDS011;4594;50.994;7.126;2022-10-22T01:45:46;4.83;;;2.77;;
9117;SDS011;4594;50.994;7.126;2022-10-22T01:54:30;4.37;;;3.00;;
9117;SDS011;4594;50.994;7.126;2022-10-22T02:00:18;6.00;;;2.77;;
9117;SDS011;4594;50.994;7.126;2022-10-22T02:08:32;2.93;;;2.63;;
9117;SDS011;4594;50.994;7.126;2022-10-22T02:11:00;7.97;;;3.40;;
9117;SDS011;4594;50.994;7.126;2022-10-22T02:13:33;5.27;;;2.60;;
9117;SDS011;4594;50.994;7.126;2022-10-22T02:16:07;5.10;;;2.87;;
9117;SDS011;4594;50.994;7.126;2022-10-22T02:18:43;3.30;;;2.80;;
9117;SDS011;4594;50.994;7.126;2022-10-22T02:21:13;5.30;;;2.50;;
9117;SDS011;4594;50.994;7.126;2022-10-22T02:23:40;3.30;;;2.97;;
9117;SDS011;4594;50.994;7.126;2022-10-22T02:26:10;3.20;;;2.80;;
9117;SDS011;4594;50.994;7.126;2022-10-22T02:29:13;4.40;;;3.20;;
9117;SDS011;4594;50.994;7.126;2022-10-22T02:31:46;4.50;;;2.80;;
9117;SDS011;4594;50.994;7.126;2022-10-22T02:34:17;8.57;;;2.80;;
9117;SDS011;4594;50.994;7.126;2022-10-22T02:36:47;7.57;;;2.80;;
9117;SDS011;4594;50.994;7.126;2022-10-22T02:39:22;2.90;;;2.70;;
9117;SDS011;4594;50.994;7.126;2022-10-22T02:41:49;2.53;;;2.40;;
9117;SDS011;4594;50.994;7.126;2022-10-22T02:44:18;3.00;;;2.40;;
9117;SDS011;4594;50.994;7.126;2022-10-22T02:46:46;6.63;;;2.50;;
9117;SDS011;4594;50.994;7.126;2022-10-22T02:49:12;4.20;;;2.67;;
9117;SDS011;4594;50.994;7.126;2022-10-22T02:51:38;2.80;;;2.53;;
9117;SDS011;4594;50.994;7.126;2022-10-22T02:54:04;2.83;;;2.63;;
9117;SDS011;4594;50.994;7.126;2022-10-22T02:56:30;2.90;;;2.70;;
9117;SDS011;4594;50.994;7.126;2022-10-22T02:58:56;2.70;;;2.50;;
9117;SDS011;4594;50.994;7.126;2022-10-22T03:01:22;5.57;;;3.00;;
9117;SDS011;4594;50.994;7.126;2022-10-22T03:03:48;6.13;;;3.00;;
9117;SDS011;4594;50.994;7.126;2022-10-22T03:06:14;3.93;;;2.60;;
9117;SDS011;4594;50.994;7.126;2022-10-22T03:08:40;3.20;;;2.90;;
9117;SDS011;4594;50.994;7.126;2022-10-22T03:13:39;2.77;;;2.57;;
9117;SDS011;4594;50.994;7.126;2022-10-22T03:16:05;2.67;;;2.47;;
9117;SDS011;4594;50.994;7.126;2022-10-22T03:18:31;10.50;;;2.93;;
9117;SDS011;4594;50.994;7.126;2022-10-22T03:21:05;2.93;;;2.67;;
9117;SDS011;4594;50.994;7.126;2022-10-22T03:23:44;2.73;;;2.53;;
9117;SDS011;4594;50.994;7.126;2022-10-22T03:26:11;2.60;;;2.40;;
9117;SDS011;4594;50.994;7.126;2022-10-22T03:28:39;2.90;;;2.60;;
9117;SDS011;4594;50.994;7.126;2022-10-22T03:31:06;3.33;;;2.80;;
9117;SDS011;4594;50.994;7.126;2022-10-22T03:33:32;3.17;;;2.53;;
9117;SDS011;4594;50.994;7.126;2022-10-22T03:35:58;7.93;;;2.57;;
9117;SDS011;4594;50.994;7.126;2022-10-22T03:38:25;2.77;;;2.67;;
9117;SDS011;4594;50.994;7.126;2022-10-22T03:40:50;2.97;;;2.77;;
9117;SDS011;4594;50.994;7.126;2022-10-22T03:43:17;3.90;;;2.87;;
9117;SDS011;4594;50.994;7.126;2022-10-22T03:45:43;6.73;;;3.00;;
9117;SDS011;4594;50.994;7.126;2022-10-22T03:48:08;6.50;;;2.70;;
9117;SDS011;4594;50.994;7.126;2022-10-22T03:50:34;11.53;;;2.93;;
9117;SDS011;4594;50.994;7.126;2022-10-22T03:53:00;3.93;;;2.60;;
9117;SDS011;4594;50.994;7.126;2022-10-22T03:55:25;2.70;;;2.60;;
9117;SDS011;4594;50.994;7.126;2022-10-22T03:57:51;3.23;;;2.60;;
9117;SDS011;4594;50.994;7.126;2022-10-22T04:00:17;5.40;;;2.83;;
9117;SDS011;4594;50.994;7.126;2022-10-22T04:02:43;3.10;;;2.83;;
9117;SDS011;4594;50.994;7.126;2022-10-22T04:05:08;5.23;;;2.43;;
9117;SDS011;4594;50.994;7.126;2022-10-22T04:07:34;10.13;;;3.37;;
9117;SDS011;4594;50.994;7.126;2022-10-22T04:10:00;7.60;;;2.77;;
9117;SDS011;4594;50.994;7.126;2022-10-22T04:12:25;6.83;;;3.10;;
9117;SDS011;4594;50.994;7.126;2022-10-22T04:14:51;4.37;;;2.93;;
9117;SDS011;4594;50.994;7.126;2022-10-22T04:17:17;3.33;;;3.10;;
9117;SDS011;4594;50.994;7.126;2022-10-22T04:19:42;5.97;;;2.50;;
9117;SDS011;4594;50.994;7.126;2022-10-22T04:22:08;4.70;;;2.70;;
9117;SDS011;4594;50.994;7.126;2022-10-22T04:24:34;4.13;;;2.87;;
9117;SDS011;4594;50.994;7.126;2022-10-22T04:26:59;3.60;;;2.60;;
9117;SDS011;4594;50.994;7.126;2022-10-22T04:29:25;4.07;;;3.03;;
9117;SDS011;4594;50.994;7.126;2022-10-22T04:31:51;3.10;;;2.67;;
9117;SDS011;4594;50.994;7.126;2022-10-22T04:34:17;3.40;;;3.10;;
9117;SDS011;4594;50.994;7.126;2022-10-22T04:36:42;3.73;;;3.17;;
9117;SDS011;4594;50.994;7.126;2022-10-22T04:39:08;5.10;;;2.80;;
9117;SDS011;4594;50.994;7.126;2022-10-22T04:41:35;6.37;;;3.30;;
9117;SDS011;4594;50.994;7.126;2022-10-22T04:44:03;3.43;;;3.17;;
9117;SDS011;4594;50.994;7.126;2022-10-22T04:46:31;2.93;;;2.73;;
9117;SDS011;4594;50.994;7.126;2022-10-22T04:48:59;4.87;;;3.50;;
9117;SDS011;4594;50.994;7.126;2022-10-22T04:51:25;4.63;;;3.10;;
9117;SDS011;4594;50.994;7.126;2022-10-22T04:53:51;3.27;;;3.07;;
9117;SDS011;4594;50.994;7.126;2022-10-22T04:56:19;8.37;;;3.53;;
9117;SDS011;4594;50.994;7.126;2022-10-22T04:58:49;4.10;;;2.83;;
9117;SDS011;4594;50.994;7.126;2022-10-22T05:01:19;3.60;;;3.27;;
9117;SDS011;4594;50.994;7.126;2022-10-22T05:03:57;3.40;;;3.10;;
9117;SDS011;4594;50.994;7.126;2022-10-22T05:06:26;4.77;;;3.47;;
9117;SDS011;4594;50.994;7.126;2022-10-22T05:08:56;3.90;;;3.00;;
9117;SDS011;4594;50.994;7.126;2022-10-22T05:11:29;6.20;;;3.53;;
9117;SDS011;4594;50.994;7.126;2022-10-22T05:13:59;3.33;;;3.13;;
9117;SDS011;4594;50.994;7.126;2022-10-22T05:16:27;4.77;;;2.83;;
9117;SDS011;4594;50.994;7.126;2022-10-22T05:18:55;3.60;;;3.30;;
9117;SDS011;4594;50.994;7.126;2022-10-22T05:21:24;5.80;;;3.60;;
9117;SDS011;4594;50.994;7.126;2022-10-22T05:23:50;4.80;;;3.43;;
9117;SDS011;4594;50.994;7.126;2022-10-22T05:26:19;9.57;;;3.77;;
9117;SDS011;4594;50.994;7.126;2022-10-22T05:28:46;4.67;;;3.10;;
9117;SDS011;4594;50.994;7.126;2022-10-22T05:31:14;5.90;;;3.43;;
9117;SDS011;4594;50.994;7.126;2022-10-22T05:33:41;3.80;;;3.43;;
9117;SDS011;4594;50.994;7.126;2022-10-22T05:36:09;6.27;;;3.27;;
9117;SDS011;4594;50.994;7.126;2022-10-22T05:38:40;6.83;;;3.40;;
9117;SDS011;4594;50.994;7.126;2022-10-22T05:41:07;5.23;;;3.80;;
9117;SDS011;4594;50.994;7.126;2022-10-22T05:43:43;3.73;;;3.53;;
9117;SDS011;4594;50.994;7.126;2022-10-22T05:46:19;3.50;;;3.20;;
9117;SDS011;4594;50.994;7.126;2022-10-22T05:48:50;3.47;;;3.27;;
9117;SDS011;4594;50.994;7.126;2022-10-22T05:51:27;6.13;;;4.50;;
9117;SDS011;4594;50.994;7.126;2022-10-22T05:53:56;8.27;;;6.07;;
9117;SDS011;4594;50.994;7.126;2022-10-22T05:56:25;6.97;;;5.00;;
9117;SDS011;4594;50.994;7.126;2022-10-22T05:58:53;10.27;;;4.77;;
9117;SDS011;4594;50.994;7.126;2022-10-22T06:01:20;4.47;;;4.17;;
9117;SDS011;4594;50.994;7.126;2022-10-22T06:03:51;6.30;;;4.00;;
9117;SDS011;4594;50.994;7.126;2022-10-22T06:06:26;4.20;;;3.80;;
9117;SDS011;4594;50.994;7.126;2022-10-22T06:09:00;5.30;;;3.83;;
9117;SDS011;4594;50.994;7.126;2022-10-22T06:11:42;3.47;;;3.13;;
9117;SDS011;4594;50.994;7.126;2022-10-22T06:14:09;5.07;;;3.60;;
9117;SDS011;4594;50.994;7.126;2022-10-22T06:16:35;5.63;;;3.50;;
9117;SDS011;4594;50.994;7.126;2022-10-22T06:19:02;3.53;;;3.23;;
9117;SDS011;4594;50.994;7.126;2022-10-22T06:21:28;5.63;;;3.77;;
9117;SDS011;4594;50.994;7.126;2022-10-22T06:23:56;4.30;;;3.87;;
9117;SDS011;4594;50.994;7.126;2022-10-22T06:26:24;3.73;;;3.40;;
9117;SDS011;4594;50.994;7.126;2022-10-22T06:28:50;4.83;;;3.80;;
9117;SDS011;4594;50.994;7.126;2022-10-22T06:31:16;5.47;;;3.60;;
9117;SDS011;4594;50.994;7.126;2022-10-22T06:33:41;4.63;;;3.90;;
9117;SDS011;4594;50.994;7.126;2022-10-22T06:36:15;7.60;;;3.70;;
9117;SDS011;4594;50.994;7.126;2022-10-22T06:38:44;6.53;;;3.40;;
9117;SDS011;4594;50.994;7.126;2022-10-22T06:41:12;10.60;;;4.17;;
9117;SDS011;4594;50.994;7.126;2022-10-22T06:43:40;5.03;;;3.60;;
9117;SDS011;4594;50.994;7.126;2022-10-22T06:46:09;4.40;;;4.00;;
9117;SDS011;4594;50.994;7.126;2022-10-22T06:48:36;4.03;;;3.67;;
9117;SDS011;4594;50.994;7.126;2022-10-22T06:51:03;4.00;;;3.50;;
9117;SDS011;4594;50.994;7.126;2022-10-22T06:53:34;4.60;;;3.80;;
9117;SDS011;4594;50.994;7.126;2022-10-22T06:56:11;3.87;;;3.40;;
9117;SDS011;4594;50.994;7.126;2022-10-22T06:58:39;3.93;;;3.53;;
9117;SDS011;4594;50.994;7.126;2022-10-22T07:03:36;3.97;;;3.57;;
9117;SDS011;4594;50.994;7.126;2022-10-22T07:06:04;3.30;;;3.00;;
9117;SDS011;4594;50.994;7.126;2022-10-22T07:08:32;3.23;;;3.03;;
9117;SDS011;4594;50.994;7.126;2022-10-22T07:13:54;6.10;;;3.30;;
9117;SDS011;4594;50.994;7.126;2022-10-22T07:16:23;3.03;;;2.83;;
9117;SDS011;4594;50.994;7.126;2022-10-22T07:18:50;4.77;;;3.00;;
9117;SDS011;4594;50.994;7.126;2022-10-22T07:21:16;6.60;;;2.57;;
9117;SDS011;4594;50.994;7.126;2022-10-22T07:23:44;4.43;;;3.17;;
9117;SDS011;4594;50.994;7.126;2022-10-22T07:26:10;8.20;;;3.07;;
9117;SDS011;4594;50.994;7.126;2022-10-22T07:28:39;2.90;;;2.80;;
9117;SDS011;4594;50.994;7.126;2022-10-22T07:31:06;6.97;;;2.83;;
9117;SDS011;4594;50.994;7.126;2022-10-22T07:33:34;4.60;;;2.20;;
9117;SDS011;4594;50.994;7.126;2022-10-22T07:36:02;2.67;;;2.30;;
9117;SDS011;4594;50.994;7.126;2022-10-22T07:38:31;3.43;;;2.40;;
9117;SDS011;4594;50.994;7.126;2022-10-22T07:40:57;2.33;;;2.13;;
9117;SDS011;4594;50.994;7.126;2022-10-22T07:43:23;4.03;;;2.50;;
9117;SDS011;4594;50.994;7.126;2022-10-22T07:45:49;4.73;;;2.47;;
9117;SDS011;4594;50.994;7.126;2022-10-22T07:48:15;3.30;;;2.23;;
9117;SDS011;4594;50.994;7.126;2022-10-22T07:50:41;6.43;;;2.13;;
9117;SDS011;4594;50.994;7.126;2022-10-22T07:53:07;9.03;;;2.43;;
9117;SDS011;4594;50.994;7.126;2022-10-22T07:55:33;2.63;;;1.90;;
9117;SDS011;4594;50.994;7.126;2022-10-22T07:57:59;2.73;;;2.10;;
9117;SDS011;4594;50.994;7.126;2022-10-22T08:00:25;6.77;;;2.30;;
9117;SDS011;4594;50.994;7.126;2022-10-22T08:02:51;3.50;;;1.80;;
9117;SDS011;4594;50.994;7.126;2022-10-22T08:05:17;2.47;;;1.80;;
9117;SDS011;4594;50.994;7.126;2022-10-22T08:07:43;6.10;;;1.80;;
9117;SDS011;4594;50.994;7.126;2022-10-22T08:10:09;6.40;;;1.47;;
9117;SDS011;4594;50.994;7.126;2022-10-22T08:12:36;2.30;;;1.50;;
9117;SDS011;4594;50.994;7.126;2022-10-22T08:15:03;1.90;;;1.60;;
9117;SDS011;4594;50.994;7.126;2022-10-22T08:17:30;6.93;;;2.10;;
9117;SDS011;4594;50.994;7.126;2022-10-22T08:19:55;5.63;;;1.90;;
9117;SDS011;4594;50.994;7.126;2022-10-22T08:22:21;4.57;;;1.47;;
9117;SDS011;4594;50.994;7.126;2022-10-22T08:24:46;4.03;;;1.70;;
9117;SDS011;4594;50.994;7.126;2022-10-22T08:27:12;3.53;;;1.90;;
9117;SDS011;4594;50.994;7.126;2022-10-22T08:29:38;3.07;;;1.70;;
9117;SDS011;4594;50.994;7.126;2022-10-22T08:32:04;2.40;;;1.60;;
9117;SDS011;4594;50.994;7.126;2022-10-22T08:34:30;1.50;;;1.40;;
9117;SDS011;4594;50.994;7.126;2022-10-22T08:36:55;7.63;;;1.80;;
9117;SDS011;4594;50.994;7.126;2022-10-22T08:39:21;4.03;;;2.07;;
9117;SDS011;4594;50.994;7.126;2022-10-22T08:41:58;3.47;;;1.90;;
9117;SDS011;4594;50.994;7.126;2022-10-22T08:45:42;1.50;;;1.40;;
9117;SDS011;4594;50.994;7.126;2022-10-22T08:48:03;3.23;;;1.73;;
9117;SDS011;4594;50.994;7.126;2022-10-22T08:50:45;4.03;;;1.77;;
9117;SDS011;4594;50.994;7.126;2022-10-22T08:53:16;11.50;;;2.10;;
9117;SDS011;4594;50.994;7.126;2022-10-22T08:55:46;4.50;;;1.87;;
9117;SDS011;4594;50.994;7.126;2022-10-22T08:58:39;2.83;;;1.70;;
9117;SDS011;4594;50.994;7.126;2022-10-22T09:01:18;1.80;;;1.70;;
9117;SDS011;4594;50.994;7.126;2022-10-22T09:04:12;4.90;;;1.97;;
9117;SDS011;4594;50.994;7.126;2022-10-22T09:06:53;2.13;;;1.93;;
9117;SDS011;4594;50.994;7.126;2022-10-22T09:09:24;2.80;;;1.90;;
9117;SDS011;4594;50.994;7.126;2022-10-22T09:11:57;3.43;;;2.20;;
9117;SDS011;4594;50.994;7.126;2022-10-22T09:14:25;3.57;;;2.10;;
9117;SDS011;4594;50.994;7.126;2022-10-22T09:19:39;2.40;;;2.00;;
9117;SDS011;4594;50.994;7.126;2022-10-22T09:22:45;5.77;;;2.00;;
9117;SDS011;4594;50.994;7.126;2022-10-22T09:27:57;3.90;;;1.93;;
9117;SDS011;4594;50.994;7.126;2022-10-22T09:30:24;6.87;;;2.37;;
9117;SDS011;4594;50.994;7.126;2022-10-22T09:32:59;5.77;;;2.60;;
9117;SDS011;4594;50.994;7.126;2022-10-22T09:35:32;4.00;;;2.57;;
9117;SDS011;4594;50.994;7.126;2022-10-22T09:38:11;5.60;;;2.20;;
9117;SDS011;4594;50.994;7.126;2022-10-22T09:40:44;3.57;;;2.30;;
9117;SDS011;4594;50.994;7.126;2022-10-22T09:43:14;6.43;;;2.20;;
9117;SDS011;4594;50.994;7.126;2022-10-22T09:45:41;12.43;;;3.27;;
9117;SDS011;4594;50.994;7.126;2022-10-22T09:50:54;16.17;;;3.90;;
9117;SDS011;4594;50.994;7.126;2022-10-22T09:53:29;7.47;;;3.27;;
9117;SDS011;4594;50.994;7.126;2022-10-22T09:56:33;11.00;;;3.80;;
9117;SDS011;4594;50.994;7.126;2022-10-22T09:59:03;7.90;;;4.87;;
9117;SDS011;4594;50.994;7.126;2022-10-22T10:01:35;9.57;;;5.07;;
9117;SDS011;4594;50.994;7.126;2022-10-22T10:04:08;9.33;;;5.03;;
9117;SDS011;4594;50.994;7.126;2022-10-22T10:06:41;13.50;;;4.00;;
9117;SDS011;4594;50.994;7.126;2022-10-22T10:09:13;6.67;;;3.60;;
9117;SDS011;4594;50.994;7.126;2022-10-22T10:36:51;5.00;;;2.10;;
9117;SDS011;4594;50.994;7.126;2022-10-22T10:39:45;3.37;;;2.17;;
9117;SDS011;4594;50.994;7.126;2022-10-22T10:48:59;5.23;;;2.23;;
9117;SDS011;4594;50.994;7.126;2022-10-22T10:57:11;4.07;;;1.87;;
9117;SDS011;4594;50.994;7.126;2022-10-22T11:00:24;7.67;;;1.73;;
9117;SDS011;4594;50.994;7.126;2022-10-22T11:05:57;2.10;;;1.77;;
9117;SDS011;4594;50.994;7.126;2022-10-22T11:08:31;2.33;;;1.70;;
9117;SDS011;4594;50.994;7.126;2022-10-22T11:11:05;2.13;;;1.47;;
9117;SDS011;4594;50.994;7.126;2022-10-22T11:16:22;4.07;;;1.60;;
9117;SDS011;4594;50.994;7.126;2022-10-22T11:19:05;2.87;;;1.70;;
9117;SDS011;4594;50.994;7.126;2022-10-22T11:25:30;4.47;;;1.50;;
9117;SDS011;4594;50.994;7.126;2022-10-22T11:28:09;4.50;;;1.70;;
9117;SDS011;4594;50.994;7.126;2022-10-22T11:30:52;9.73;;;2.20;;
9117;SDS011;4594;50.994;7.126;2022-10-22T11:33:25;13.10;;;2.20;;
9117;SDS011;4594;50.994;7.126;2022-10-22T11:36:03;5.37;;;1.90;;
9117;SDS011;4594;50.994;7.126;2022-10-22T11:38:32;4.37;;;1.37;;
9117;SDS011;4594;50.994;7.126;2022-10-22T11:41:01;5.20;;;1.70;;
9117;SDS011;4594;50.994;7.126;2022-10-22T11:44:20;7.97;;;1.70;;
9117;SDS011;4594;50.994;7.126;2022-10-22T11:48:44;8.37;;;1.63;;
9117;SDS011;4594;50.994;7.126;2022-10-22T11:51:50;6.57;;;2.23;;
9117;SDS011;4594;50.994;7.126;2022-10-22T11:59:44;3.50;;;1.80;;
9117;SDS011;4594;50.994;7.126;2022-10-22T12:05:15;9.13;;;1.97;;
9117;SDS011;4594;50.994;7.126;2022-10-22T12:10:48;2.30;;;1.50;;
9117;SDS011;4594;50.994;7.126;2022-10-22T12:16:39;2.40;;;1.73;;
9117;SDS011;4594;50.994;7.126;2022-10-22T12:19:25;3.70;;;1.50;;
9117;SDS011;4594;50.994;7.126;2022-10-22T12:24:34;3.60;;;1.37;;
9117;SDS011;4594;50.994;7.126;2022-10-22T12:27:15;6.63;;;1.73;;
9117;SDS011;4594;50.994;7.126;2022-10-22T12:29:43;9.63;;;2.27;;
9117;SDS011;4594;50.994;7.126;2022-10-22T12:32:09;5.30;;;1.80;;
9117;SDS011;4594;50.994;7.126;2022-10-22T12:34:46;4.37;;;1.67;;
9117;SDS011;4594;50.994;7.126;2022-10-22T12:37:14;3.93;;;1.30;;
9117;SDS011;4594;50.994;7.126;2022-10-22T12:39:43;10.20;;;1.50;;
9117;SDS011;4594;50.994;7.126;2022-10-22T12:42:13;3.67;;;1.40;;
9117;SDS011;4594;50.994;7.126;2022-10-22T12:44:42;5.90;;;1.33;;
9117;SDS011;4594;50.994;7.126;2022-10-22T12:47:15;2.23;;;1.40;;
9117;SDS011;4594;50.994;7.126;2022-10-22T12:49:46;2.93;;;1.43;;
9117;SDS011;4594;50.994;7.126;2022-10-22T12:52:19;3.70;;;1.53;;
9117;SDS011;4594;50.994;7.126;2022-10-22T12:54:48;4.40;;;1.70;;
9117;SDS011;4594;50.994;7.126;2022-10-22T12:57:16;3.30;;;1.70;;
9117;SDS011;4594;50.994;7.126;2022-10-22T12:59:48;3.43;;;1.57;;
9117;SDS011;4594;50.994;7.126;2022-10-22T13:05:03;3.40;;;2.30;;
9117;SDS011;4594;50.994;7.126;2022-10-22T13:08:00;7.13;;;2.10;;
9117;SDS011;4594;50.994;7.126;2022-10-22T13:10:36;2.23;;;2.00;;
9117;SDS011;4594;50.994;7.126;2022-10-22T13:13:04;1.90;;;1.63;;
9117;SDS011;4594;50.994;7.126;2022-10-22T13:20:53;2.83;;;2.50;;
9117;SDS011;4594;50.994;7.126;2022-10-22T13:23:30;6.03;;;2.47;;
9117;SDS011;4594;50.994;7.126;2022-10-22T13:26:16;4.83;;;1.90;;
9117;SDS011;4594;50.994;7.126;2022-10-22T13:28:48;4.30;;;1.87;;
9117;SDS011;4594;50.994;7.126;2022-10-22T13:31:20;2.37;;;1.40;;
9117;SDS011;4594;50.994;7.126;2022-10-22T13:33:56;3.97;;;1.67;;
9117;SDS011;4594;50.994;7.126;2022-10-22T13:36:28;1.50;;;1.40;;
9117;SDS011;4594;50.994;7.126;2022-10-22T13:38:54;2.43;;;1.03;;
9117;SDS011;4594;50.994;7.126;2022-10-22T13:43:49;8.03;;;1.63;;
9117;SDS011;4594;50.994;7.126;2022-10-22T13:46:16;3.80;;;1.40;;
9117;SDS011;4594;50.994;7.126;2022-10-22T13:48:43;2.50;;;1.60;;
9117;SDS011;4594;50.994;7.126;2022-10-22T13:51:12;2.70;;;2.37;;
9117;SDS011;4594;50.994;7.126;2022-10-22T13:53:54;5.70;;;2.47;;
9117;SDS011;4594;50.994;7.126;2022-10-22T13:56:21;2.73;;;1.83;;
9117;SDS011;4594;50.994;7.126;2022-10-22T13:58:48;4.03;;;2.00;;
9117;SDS011;4594;50.994;7.126;2022-10-22T14:01:21;4.87;;;3.30;;
9117;SDS011;4594;50.994;7.126;2022-10-22T14:03:50;4.90;;;3.10;;
9117;SDS011;4594;50.994;7.126;2022-10-22T14:06:22;11.93;;;6.47;;
9117;SDS011;4594;50.994;7.126;2022-10-22T14:08:59;7.00;;;4.40;;
9117;SDS011;4594;50.994;7.126;2022-10-22T14:11:35;5.30;;;3.07;;
9117;SDS011;4594;50.994;7.126;2022-10-22T14:14:01;3.20;;;2.20;;
9117;SDS011;4594;50.994;7.126;2022-10-22T14:16:32;9.40;;;1.70;;
9117;SDS011;4594;50.994;7.126;2022-10-22T14:19:00;4.30;;;1.73;;
9117;SDS011;4594;50.994;7.126;2022-10-22T14:21:29;8.33;;;1.90;;
9117;SDS011;4594;50.994;7.126;2022-10-22T14:24:01;2.60;;;1.33;;
9117;SDS011;4594;50.994;7.126;2022-10-22T14:26:29;2.13;;;1.50;;
9117;SDS011;4594;50.994;7.126;2022-10-22T14:29:00;2.80;;;2.40;;
9117;SDS011;4594;50.994;7.126;2022-10-22T14:31:27;14.10;;;7.77;;
9117;SDS011;4594;50.994;7.126;2022-10-22T14:33:53;11.60;;;6.70;;
9117;SDS011;4594;50.994;7.126;2022-10-22T14:36:18;9.33;;;5.20;;
9117;SDS011;4594;50.994;7.126;2022-10-22T14:38:46;6.07;;;3.97;;
9117;SDS011;4594;50.994;7.126;2022-10-22T14:41:17;4.03;;;3.00;;
9117;SDS011;4594;50.994;7.126;2022-10-22T14:43:50;5.13;;;2.60;;
9117;SDS011;4594;50.994;7.126;2022-10-22T14:46:17;4.07;;;2.10;;
9117;SDS011;4594;50.994;7.126;2022-10-22T14:48:43;4.33;;;1.77;;
9117;SDS011;4594;50.994;7.126;2022-10-22T14:51:11;2.40;;;2.17;;
9117;SDS011;4594;50.994;7.126;2022-10-22T14:53:39;3.63;;;2.07;;
9117;SDS011;4594;50.994;7.126;2022-10-22T14:56:05;3.07;;;1.83;;
9117;SDS011;4594;50.994;7.126;2022-10-22T14:58:31;9.60;;;2.00;;
9117;SDS011;4594;50.994;7.126;2022-10-22T15:00:57;4.57;;;1.63;;
9117;SDS011;4594;50.994;7.126;2022-10-22T15:03:26;3.87;;;2.27;;
9117;SDS011;4594;50.994;7.126;2022-10-22T15:05:51;5.00;;;1.97;;
9117;SDS011;4594;50.994;7.126;2022-10-22T15:08:18;5.33;;;3.13;;
9117;SDS011;4594;50.994;7.126;2022-10-22T15:10:45;13.03;;;6.47;;
9117;SDS011;4594;50.994;7.126;2022-10-22T15:13:20;10.27;;;6.50;;
9117;SDS011;4594;50.994;7.126;2022-10-22T15:15:46;8.90;;;5.53;;
9117;SDS011;4594;50.994;7.126;2022-10-22T15:18:11;13.77;;;3.37;;
9117;SDS011;4594;50.994;7.126;2022-10-22T15:20:37;7.27;;;3.33;;
9117;SDS011;4594;50.994;7.126;2022-10-22T15:23:03;5.30;;;2.43;;
9117;SDS011;4594;50.994;7.126;2022-10-22T15:25:28;2.57;;;2.30;;
9117;SDS011;4594;50.994;7.126;2022-10-22T15:27:54;2.37;;;1.90;;
9117;SDS011;4594;50.994;7.126;2022-10-22T15:30:20;1.97;;;1.77;;
9117;SDS011;4594;50.994;7.126;2022-10-22T15:32:46;3.60;;;1.90;;
9117;SDS011;4594;50.994;7.126;2022-10-22T15:35:11;2.27;;;1.70;;
9117;SDS011;4594;50.994;7.126;2022-10-22T15:37:37;1.80;;;1.70;;
9117;SDS011;4594;50.994;7.126;2022-10-22T15:40:04;2.30;;;2.10;;
9117;SDS011;4594;50.994;7.126;2022-10-22T15:42:31;3.10;;;1.70;;
9117;SDS011;4594;50.994;7.126;2022-10-22T15:44:57;2.03;;;1.50;;
9117;SDS011;4594;50.994;7.126;2022-10-22T15:47:24;1.53;;;1.40;;
9117;SDS011;4594;50.994;7.126;2022-10-22T15:49:53;2.37;;;1.60;;
9117;SDS011;4594;50.994;7.126;2022-10-22T15:52:19;3.00;;;1.77;;
9117;SDS011;4594;50.994;7.126;2022-10-22T15:54:45;5.60;;;1.93;;
9117;SDS011;4594;50.994;7.126;2022-10-22T15:57:11;7.73;;;2.20;;
9117;SDS011;4594;50.994;7.126;2022-10-22T15:59:37;3.23;;;1.53;;
9117;SDS011;4594;50.994;7.126;2022-10-22T16:02:03;5.33;;;1.97;;
9117;SDS011;4594;50.994;7.126;2022-10-22T16:04:29;4.00;;;2.00;;
9117;SDS011;4594;50.994;7.126;2022-10-22T16:06:55;8.47;;;1.90;;
9117;SDS011;4594;50.994;7.126;2022-10-22T16:09:23;1.97;;;1.77;;
9117;SDS011;4594;50.994;7.126;2022-10-22T16:11:51;5.43;;;1.80;;
9117;SDS011;4594;50.994;7.126;2022-10-22T16:14:19;1.93;;;1.70;;
9117;SDS011;4594;50.994;7.126;2022-10-22T16:16:48;6.93;;;1.70;;
9117;SDS011;4594;50.994;7.126;2022-10-22T16:19:20;4.30;;;1.83;;
9117;SDS011;4594;50.994;7.126;2022-10-22T16:21:48;3.37;;;2.00;;
9117;SDS011;4594;50.994;7.126;2022-10-22T16:24:15;2.10;;;1.90;;
9117;SDS011;4594;50.994;7.126;2022-10-22T16:26:42;5.63;;;2.20;;
9117;SDS011;4594;50.994;7.126;2022-10-22T16:29:07;3.67;;;2.00;;
9117;SDS011;4594;50.994;7.126;2022-10-22T16:31:35;2.10;;;1.90;;
9117;SDS011;4594;50.994;7.126;2022-10-22T16:34:01;4.27;;;1.90;;
9117;SDS011;4594;50.994;7.126;2022-10-22T16:36:26;4.23;;;2.03;;
9117;SDS011;4594;50.994;7.126;2022-10-22T16:38:52;5.03;;;2.13;;
9117;SDS011;4594;50.994;7.126;2022-10-22T16:41:19;3.60;;;2.23;;
9117;SDS011;4594;50.994;7.126;2022-10-22T16:43:48;3.03;;;2.20;;
9117;SDS011;4594;50.994;7.126;2022-10-22T16:46:16;15.53;;;2.60;;
9117;SDS011;4594;50.994;7.126;2022-10-22T16:48:45;3.10;;;2.20;;
9117;SDS011;4594;50.994;7.126;2022-10-22T16:51:15;3.00;;;2.40;;
9117;SDS011;4594;50.994;7.126;2022-10-22T16:53:50;5.03;;;2.30;;
9117;SDS011;4594;50.994;7.126;2022-10-22T16:56:16;6.30;;;2.80;;
9117;SDS011;4594;50.994;7.126;2022-10-22T16:58:43;3.00;;;2.70;;
9117;SDS011;4594;50.994;7.126;2022-10-22T17:01:15;3.20;;;2.90;;
9117;SDS011;4594;50.994;7.126;2022-10-22T17:03:43;4.07;;;2.67;;
9117;SDS011;4594;50.994;7.126;2022-10-22T17:06:10;2.90;;;2.50;;
9117;SDS011;4594;50.994;7.126;2022-10-22T17:08:36;4.17;;;2.70;;
9117;SDS011;4594;50.994;7.126;2022-10-22T17:11:05;3.20;;;2.67;;
9117;SDS011;4594;50.994;7.126;2022-10-22T17:13:31;6.87;;;2.80;;
9117;SDS011;4594;50.994;7.126;2022-10-22T17:16:01;4.20;;;2.80;;
9117;SDS011;4594;50.994;7.126;2022-10-22T17:18:30;5.13;;;2.33;;
9117;SDS011;4594;50.994;7.126;2022-10-22T17:20:57;3.07;;;2.40;;
9117;SDS011;4594;50.994;7.126;2022-10-22T17:23:23;2.87;;;2.43;;
9117;SDS011;4594;50.994;7.126;2022-10-22T17:25:56;2.77;;;2.27;;
9117;SDS011;4594;50.994;7.126;2022-10-22T17:28:25;5.70;;;2.17;;
9117;SDS011;4594;50.994;7.126;2022-10-22T17:31:05;3.70;;;2.10;;
9117;SDS011;4594;50.994;7.126;2022-10-22T17:33:42;3.27;;;2.23;;
9117;SDS011;4594;50.994;7.126;2022-10-22T17:36:09;7.27;;;3.07;;